createdAt,value
2022-09-28T00:00:16.365Z,98640.06
2022-09-28T00:02:47.135Z,98638.96
2022-09-28T00:05:18.212Z,98639.29
2022-09-28T00:07:49.233Z,98638.52
2022-09-28T00:10:22.958Z,98636.66
2022-09-28T00:12:55.505Z,98637.67
2022-09-28T00:15:25.555Z,98640.17
2022-09-28T00:17:56.172Z,98631.54
2022-09-28T00:20:26.856Z,98635.91
2022-09-28T00:22:57.556Z,98630.91
2022-09-28T00:25:28.208Z,98633.06
2022-09-28T00:27:58.894Z,98626.55
2022-09-28T00:30:29.557Z,98627.73
2022-09-28T00:33:00.174Z,98626.39
2022-09-28T00:35:31.077Z,98622.04
2022-09-28T00:38:02.355Z,98604.23
2022-09-28T00:40:33.069Z,98619.05
2022-09-28T00:43:20.737Z,98618.61
2022-09-28T00:45:56.809Z,98614.38
2022-09-28T00:48:32.155Z,98613.70
2022-09-28T00:51:06.796Z,98611.42
2022-09-28T00:53:41.475Z,98606.94
2022-09-28T00:56:19.186Z,98604.61
2022-09-28T00:58:52.701Z,98599.48
2022-09-28T01:01:23.641Z,98596.05
2022-09-28T01:03:54.840Z,98601.59
2022-09-28T01:06:29.070Z,98597.91
2022-09-28T01:09:03.473Z,98595.34
2022-09-28T01:11:36.414Z,98596.11
2022-09-28T01:14:11.553Z,98593.82
2022-09-28T01:16:50.327Z,98591.83
2022-09-28T01:20:00.261Z,98589.50
2022-09-28T01:22:48.775Z,98584.32
2022-09-28T01:25:34.556Z,98583.27
2022-09-28T01:28:10.459Z,98582.54
2022-09-28T01:30:46.911Z,98571.88
2022-09-28T01:33:23.655Z,98581.54
2022-09-28T01:36:00.867Z,98582.66
2022-09-28T01:38:35.999Z,98577.37
2022-09-28T01:41:07.519Z,98576.67
2022-09-28T01:43:43.788Z,98572.06
2022-09-28T01:46:18.511Z,98567.41
2022-09-28T01:48:56.024Z,98566.36
2022-09-28T01:51:31.251Z,98563.92
2022-09-28T01:54:07.529Z,98565.96
2022-09-28T01:56:44.641Z,98567.21
2022-09-28T01:59:19.925Z,98563.42
2022-09-28T02:01:54.671Z,98564.45
2022-09-28T02:04:29.679Z,98562.68
2022-09-28T02:07:03.720Z,98565.31
2022-09-28T02:09:41.507Z,98565.38
2022-09-28T02:12:17.155Z,98563.33
2022-09-28T02:14:51.050Z,98562.21
2022-09-28T02:17:23.070Z,98561.48
2022-09-28T02:19:54.063Z,98562.00
2022-09-28T02:22:29.839Z,98559.57
2022-09-28T02:25:04.434Z,98558.67
2022-09-28T02:27:39.513Z,98562.98
2022-09-28T02:30:12.207Z,98557.02
2022-09-28T02:32:46.150Z,98548.20
2022-09-28T02:35:19.595Z,98549.69
2022-09-28T02:37:51.215Z,98551.08
2022-09-28T02:40:25.993Z,98545.88
2022-09-28T02:43:07.340Z,98546.18
2022-09-28T02:45:53.098Z,98543.00
2022-09-28T02:49:00.097Z,98541.01
2022-09-28T02:51:47.086Z,98537.42
2022-09-28T02:54:51.265Z,98538.98
2022-09-28T02:57:35.564Z,98532.62
2022-09-28T03:00:10.356Z,98526.49
2022-09-28T03:02:50.981Z,98525.27
2022-09-28T03:05:26.879Z,98525.66
2022-09-28T03:08:01.121Z,98523.96
2022-09-28T03:10:39.431Z,98524.06
2022-09-28T03:13:12.328Z,98522.80
2022-09-28T03:15:48.560Z,98519.54
2022-09-28T03:18:20.065Z,98518.67
2022-09-28T03:20:50.959Z,98512.64
2022-09-28T03:23:25.556Z,98510.14
2022-09-28T03:25:57.015Z,98510.30
2022-09-28T03:28:28.232Z,98506.11
2022-09-28T03:30:59.670Z,98507.61
2022-09-28T03:33:30.454Z,98505.67
2022-09-28T03:36:01.437Z,98504.73
2022-09-28T03:38:34.195Z,98501.65
2022-09-28T03:41:07.678Z,98501.11
2022-09-28T03:43:39.302Z,98502.26
2022-09-28T03:46:10.303Z,98506.61
2022-09-28T03:48:44.924Z,98506.16
2022-09-28T03:51:15.723Z,98506.98
2022-09-28T03:53:46.439Z,98509.55
2022-09-28T03:56:17.940Z,98512.30
2022-09-28T03:58:48.513Z,98512.32
2022-09-28T04:01:19.830Z,98501.34
2022-09-28T04:03:54.263Z,98505.46
2022-09-28T04:06:25.607Z,98503.55
2022-09-28T04:08:56.479Z,98496.16
2022-09-28T04:11:30.046Z,98495.87
2022-09-28T04:14:06.024Z,98487.91
2022-09-28T04:16:36.767Z,98485.97
2022-09-28T04:19:17.196Z,98479.95
2022-09-28T04:22:20.559Z,98478.64
2022-09-28T04:24:51.379Z,98479.05
2022-09-28T04:27:39.655Z,98473.20
2022-09-28T04:30:12.804Z,98477.09
2022-09-28T04:32:46.970Z,98473.43
2022-09-28T04:35:17.735Z,98472.30
2022-09-28T04:37:48.486Z,98471.24
2022-09-28T04:40:19.644Z,98466.40
2022-09-28T04:42:57.535Z,98453.80
2022-09-28T04:45:28.753Z,98448.31
2022-09-28T04:48:08.929Z,98442.60
2022-09-28T04:50:59.991Z,98439.34
2022-09-28T04:53:31.001Z,98435.05
2022-09-28T04:56:04.931Z,98426.38
2022-09-28T04:58:37.205Z,98417.36
2022-09-28T05:01:10.431Z,98409.05
2022-09-28T05:03:59.127Z,98411.64
2022-09-28T05:06:48.475Z,98413.01
2022-09-28T05:09:19.166Z,98413.51
2022-09-28T05:11:53.658Z,98407.41
2022-09-28T05:14:26.537Z,98408.15
2022-09-28T05:16:57.323Z,98407.02
2022-09-28T05:19:28.205Z,98411.73
2022-09-28T05:22:06.202Z,98409.52
2022-09-28T05:24:42.769Z,98408.94
2022-09-28T05:27:13.479Z,98404.04
2022-09-28T05:29:44.224Z,98407.16
2022-09-28T05:32:33.385Z,98405.19
2022-09-28T05:35:25.683Z,98400.79
2022-09-28T05:37:56.381Z,98404.88
2022-09-28T05:40:27.186Z,98403.97
2022-09-28T05:43:02.230Z,98399.14
2022-09-28T05:45:33.205Z,98392.80
2022-09-28T05:48:04.436Z,98392.54
2022-09-28T05:50:35.114Z,98390.25
2022-09-28T05:53:08.180Z,98383.43
2022-09-28T05:55:40.418Z,98380.09
2022-09-28T05:58:11.319Z,98375.90
2022-09-28T06:00:42.025Z,98367.41
2022-09-28T06:03:15.206Z,98366.27
2022-09-28T06:05:47.329Z,98360.98
2022-09-28T06:08:18.220Z,98355.49
2022-09-28T06:10:52.716Z,98346.05
2022-09-28T06:13:23.395Z,98338.38
2022-09-28T06:15:55.127Z,98332.86
2022-09-28T06:18:25.815Z,98327.83
2022-09-28T06:21:23.318Z,98325.88
2022-09-28T06:23:54.288Z,98321.15
2022-09-28T06:26:25.205Z,98324.85
2022-09-28T06:28:55.834Z,98325.27
2022-09-28T06:31:26.469Z,98315.17
2022-09-28T06:34:01.862Z,98313.98
2022-09-28T06:36:32.617Z,98313.62
2022-09-28T06:39:03.174Z,98317.64
2022-09-28T06:41:34.308Z,98323.20
2022-09-28T06:44:15.635Z,98328.34
2022-09-28T06:47:17.607Z,98328.25
2022-09-28T06:50:20.427Z,98322.63
2022-09-28T06:53:14.717Z,98320.71
2022-09-28T06:56:01.371Z,98327.11
2022-09-28T06:58:32.870Z,98324.14
2022-09-28T07:01:05.749Z,98315.66
2022-09-28T07:03:46.702Z,98317.73
2022-09-28T07:06:31.579Z,98319.62
2022-09-28T07:09:32.337Z,98318.98
2022-09-28T07:12:25.241Z,98318.60
2022-09-28T07:14:58.534Z,98319.80
2022-09-28T07:17:38.433Z,98321.95
2022-09-28T07:20:19.202Z,98325.52
2022-09-28T07:22:56.110Z,98329.28
2022-09-28T07:25:30.151Z,98332.30
2022-09-28T07:28:11.628Z,98339.84
2022-09-28T07:30:51.160Z,98348.35
2022-09-28T07:33:41.893Z,98353.30
2022-09-28T07:36:21.024Z,98351.31
2022-09-28T07:38:52.218Z,98349.69
2022-09-28T07:41:32.516Z,98341.44
2022-09-28T07:44:06.584Z,98333.74
2022-09-28T07:46:39.123Z,98325.55
2022-09-28T07:49:16.762Z,98333.75
2022-09-28T07:52:16.890Z,98333.30
2022-09-28T07:55:10.588Z,98336.34
2022-09-28T07:58:07.209Z,98340.16
2022-09-28T08:00:51.246Z,98339.62
2022-09-28T08:03:23.056Z,98339.20
2022-09-28T08:05:58.438Z,98339.14
2022-09-28T08:08:30.256Z,98340.80
2022-09-28T08:11:02.265Z,98346.14
2022-09-28T08:13:55.448Z,98352.88
2022-09-28T08:16:48.509Z,98352.13
2022-09-28T08:20:05.190Z,98350.59
2022-09-28T08:22:36.135Z,98350.23
2022-09-28T08:25:09.036Z,98346.15
2022-09-28T08:27:40.381Z,98348.76
2022-09-28T08:30:13.011Z,98351.73
2022-09-28T08:33:03.854Z,98354.52
2022-09-28T08:35:47.159Z,98352.27
2022-09-28T08:38:38.174Z,98354.21
2022-09-28T08:41:39.503Z,98363.05
2022-09-28T08:44:44.513Z,98368.59
2022-09-28T08:47:47.365Z,98365.64
2022-09-28T08:50:39.812Z,98361.50
2022-09-28T08:53:43.555Z,98361.07
2022-09-28T08:56:31.910Z,98361.59
2022-09-28T08:59:09.587Z,98359.67
2022-09-28T09:01:45.857Z,98361.39
2022-09-28T09:04:18.041Z,98359.70
2022-09-28T09:07:27.278Z,98358.23
2022-09-28T09:10:48.204Z,98362.94
2022-09-28T09:13:45.858Z,98376.06
2022-09-28T09:16:28.219Z,98371.91
2022-09-28T09:19:42.032Z,98366.77
2022-09-28T09:22:37.672Z,98365.67
2022-09-28T09:25:19.298Z,98360.85
2022-09-28T09:28:08.971Z,98356.02
2022-09-28T09:30:49.607Z,98353.98
2022-09-28T09:33:48.696Z,98355.55
2022-09-28T09:37:08.012Z,98350.70
2022-09-28T09:40:16.490Z,98348.32
2022-09-28T09:43:43.600Z,98346.86
2022-09-28T09:46:57.364Z,98344.63
2022-09-28T09:49:45.173Z,98343.17
2022-09-28T09:52:24.056Z,98346.14
2022-09-28T09:55:00.998Z,98349.80
2022-09-28T09:57:56.989Z,98346.52
2022-09-28T10:01:00.598Z,98343.63
2022-09-28T10:03:52.881Z,98341.89
2022-09-28T10:06:31.916Z,98343.38
2022-09-28T10:09:06.204Z,98344.12
2022-09-28T10:11:42.119Z,98341.96
2022-09-28T10:14:17.568Z,98339.59
2022-09-28T10:16:58.786Z,98333.41
2022-09-28T10:19:52.088Z,98336.33
2022-09-28T10:22:38.481Z,98336.26
2022-09-28T10:25:16.042Z,98332.59
2022-09-28T10:27:52.494Z,98332.42
2022-09-28T10:30:25.390Z,98330.14
2022-09-28T10:32:59.475Z,98325.59
2022-09-28T10:35:42.386Z,98320.67
2022-09-28T10:38:20.115Z,98317.05
2022-09-28T10:40:55.926Z,98316.77
2022-09-28T10:44:06.338Z,98315.30
2022-09-28T10:47:02.990Z,98310.25
2022-09-28T10:49:47.032Z,98309.13
2022-09-28T10:52:37.445Z,98310.13
2022-09-28T10:55:30.646Z,98310.23
2022-09-28T10:58:01.919Z,98310.67
2022-09-28T11:00:43.482Z,98305.63
2022-09-28T11:03:28.383Z,98298.29
2022-09-28T11:06:05.139Z,98298.13
2022-09-28T11:08:41.531Z,98295.29
2022-09-28T11:11:14.916Z,98295.14
2022-09-28T11:13:49.045Z,98299.40
2022-09-28T11:16:29.438Z,98307.51
2022-09-28T11:19:05.863Z,98317.48
2022-09-28T11:21:46.176Z,98322.31
2022-09-28T11:24:27.074Z,98308.52
2022-09-28T11:27:01.051Z,98291.93
2022-09-28T11:29:42.882Z,98288.58
2022-09-28T11:32:27.305Z,98292.58
2022-09-28T11:35:24.062Z,98296.62
2022-09-28T11:38:14.373Z,98301.94
2022-09-28T11:41:18.502Z,98312.46
2022-09-28T11:44:08.492Z,98313.73
2022-09-28T11:46:47.844Z,98315.46
2022-09-28T11:49:32.948Z,98308.16
2022-09-28T11:52:09.298Z,98307.27
2022-09-28T11:54:45.428Z,98305.41
2022-09-28T11:57:21.854Z,98301.46
2022-09-28T12:00:00.031Z,98303.25
2022-09-28T12:02:37.240Z,98302.37
2022-09-28T12:05:22.018Z,98305.28
2022-09-28T12:07:56.783Z,98310.60
2022-09-28T12:10:52.720Z,98320.20
2022-09-28T12:13:31.579Z,98316.73
2022-09-28T12:16:32.293Z,98324.09
2022-09-28T12:19:03.511Z,98331.21
2022-09-28T12:21:43.844Z,98330.09
2022-09-28T12:24:24.245Z,98339.25
2022-09-28T12:27:01.442Z,98339.85
2022-09-28T12:29:38.995Z,98340.68
2022-09-28T12:32:17.496Z,98336.84
2022-09-28T12:34:46.521Z,98336.25
2022-09-28T12:37:31.964Z,98337.77
2022-09-28T12:40:23.532Z,98341.65
2022-09-28T12:43:07.684Z,98346.14
2022-09-28T12:46:10.861Z,98352.91
2022-09-28T12:49:56.367Z,98354.48
2022-09-28T12:51:59.960Z,98355.23
2022-09-28T12:54:53.334Z,98357.39
2022-09-28T12:57:37.689Z,98357.96
2022-09-28T13:00:12.947Z,98359.41
2022-09-28T13:03:01.271Z,98368.09
2022-09-28T13:06:09.942Z,98374.09
2022-09-28T13:08:53.224Z,98381.60
2022-09-28T13:11:33.144Z,98377.59
2022-09-28T13:14:26.185Z,98385.34
2022-09-28T13:17:04.718Z,98388.38
2022-09-28T13:19:43.472Z,98387.27
2022-09-28T13:22:29.298Z,98393.05
2022-09-28T13:25:05.811Z,98396.37
2022-09-28T13:27:40.553Z,98393.53
2022-09-28T13:30:19.438Z,98393.92
2022-09-28T13:32:51.508Z,98397.17
2022-09-28T13:35:22.955Z,98404.85
2022-09-28T13:38:35.670Z,98403.92
2022-09-28T13:41:19.699Z,98401.48
2022-09-28T13:44:13.165Z,98409.04
2022-09-28T13:46:53.030Z,98417.14
2022-09-28T13:49:32.590Z,98419.74
2022-09-28T13:52:10.632Z,98420.11
2022-09-28T13:54:57.804Z,98418.38
2022-09-28T13:57:38.456Z,98429.26
2022-09-28T14:00:21.803Z,98436.20
2022-09-28T14:03:00.694Z,98438.05
2022-09-28T14:06:04.574Z,98437.77
2022-09-28T14:08:39.066Z,98435.43
2022-09-28T14:11:43.702Z,98442.65
2022-09-28T14:14:52.727Z,98443.73
2022-09-28T14:18:14.142Z,98451.80
2022-09-28T14:20:55.031Z,98456.27
2022-09-28T14:23:54.217Z,98462.33
2022-09-28T14:26:50.323Z,98459.94
2022-09-28T14:29:29.264Z,98470.46
2022-09-28T14:32:05.256Z,98478.38
2022-09-28T14:34:39.766Z,98491.50
2022-09-28T14:37:40.595Z,98490.87
2022-09-28T14:40:39.855Z,98491.04
2022-09-28T14:43:26.778Z,98490.76
2022-09-28T14:46:27.098Z,98488.17
2022-09-28T14:49:01.813Z,98492.41
2022-09-28T14:52:03.435Z,98491.73
2022-09-28T14:54:53.397Z,98490.77
2022-09-28T14:57:30.047Z,98493.39
2022-09-28T15:00:01.863Z,98492.24
2022-09-28T15:02:38.477Z,98491.15
2022-09-28T15:05:20.785Z,98494.86
2022-09-28T15:07:53.741Z,98489.96
2022-09-28T15:10:33.917Z,98497.38
2022-09-28T15:13:16.710Z,98501.50
2022-09-28T15:15:51.172Z,98500.96
2022-09-28T15:19:01.461Z,98502.33
2022-09-28T15:21:40.824Z,98505.60
2022-09-28T15:24:30.588Z,98509.59
2022-09-28T15:27:02.615Z,98507.55
2022-09-28T15:29:34.072Z,98509.86
2022-09-28T15:32:05.247Z,98512.15
2022-09-28T15:34:54.486Z,98512.54
2022-09-28T15:37:29.102Z,98513.44
2022-09-28T15:40:01.838Z,98510.28
2022-09-28T15:42:38.027Z,98517.07
2022-09-28T15:45:25.441Z,98520.25
2022-09-28T15:48:16.156Z,98519.80
2022-09-28T15:50:57.063Z,98524.29
2022-09-28T15:53:28.478Z,98528.66
2022-09-28T15:56:09.714Z,98535.15
2022-09-28T15:58:44.843Z,98540.19
2022-09-28T16:01:28.367Z,98543.82
2022-09-28T16:04:01.859Z,98542.52
2022-09-28T16:06:32.564Z,98546.95
2022-09-28T16:09:03.336Z,98550.79
2022-09-28T16:11:40.630Z,98553.80
2022-09-28T16:14:23.196Z,98559.73
2022-09-28T16:16:55.225Z,98559.82
2022-09-28T16:19:29.506Z,98563.80
2022-09-28T16:22:03.142Z,98565.57
2022-09-28T16:24:36.459Z,98567.10
2022-09-28T16:27:09.767Z,98572.94
2022-09-28T16:29:45.082Z,98579.42
2022-09-28T16:32:41.703Z,98586.23
2022-09-28T16:35:22.562Z,98588.66
2022-09-28T16:38:00.088Z,98591.69
2022-09-28T16:40:32.280Z,98596.20
2022-09-28T16:43:06.876Z,98595.77
2022-09-28T16:45:38.852Z,98597.62
2022-09-28T16:48:10.959Z,98601.45
2022-09-28T16:50:41.697Z,98602.56
2022-09-28T16:53:35.454Z,98606.55
2022-09-28T16:56:07.943Z,98608.31
2022-09-28T16:58:39.167Z,98607.09
2022-09-28T17:01:12.676Z,98604.14
2022-09-28T17:03:46.828Z,98604.83
2022-09-28T17:06:19.090Z,98610.35
2022-09-28T17:08:49.720Z,98610.34
2022-09-28T17:11:24.658Z,98613.70
2022-09-28T17:13:59.034Z,98617.27
2022-09-28T17:17:02.348Z,98621.04
2022-09-28T17:19:25.705Z,98623.61
2022-09-28T17:21:54.705Z,98626.36
2022-09-28T17:24:25.579Z,98630.98
2022-09-28T17:26:56.911Z,98632.30
2022-09-28T17:29:27.951Z,98635.42
2022-09-28T17:31:58.579Z,98637.01
2022-09-28T17:34:29.312Z,98642.30
2022-09-28T17:37:00.045Z,98644.58
2022-09-28T17:39:31.909Z,98644.37
2022-09-28T17:42:02.587Z,98647.81
2022-09-28T17:44:33.320Z,98648.95
2022-09-28T17:47:04.241Z,98651.48
2022-09-28T17:49:34.998Z,98654.35
2022-09-28T17:52:05.906Z,98651.78
2022-09-28T17:54:36.861Z,98655.55
2022-09-28T17:57:07.538Z,98657.50
2022-09-28T17:59:38.195Z,98661.26
2022-09-28T18:02:10.659Z,98665.05
2022-09-28T18:04:51.732Z,98663.60
2022-09-28T18:07:23.289Z,98665.30
2022-09-28T18:09:58.219Z,98667.80
2022-09-28T18:12:29.162Z,98671.02
2022-09-28T18:14:59.826Z,98668.59
2022-09-28T18:17:30.435Z,98671.52
2022-09-28T18:20:01.358Z,98673.96
2022-09-28T18:22:32.100Z,98675.70
2022-09-28T18:25:03.217Z,98681.45
2022-09-28T18:27:35.095Z,98677.81
2022-09-28T18:30:07.600Z,98679.14
2022-09-28T18:32:39.088Z,98681.94
2022-09-28T18:35:11.979Z,98684.25
2022-09-28T18:37:42.991Z,98682.07
2022-09-28T18:40:15.312Z,98689.80
2022-09-28T18:42:45.932Z,98689.12
2022-09-28T18:45:17.293Z,98692.15
2022-09-28T18:47:48.303Z,98694.72
2022-09-28T18:50:19.040Z,98697.73
2022-09-28T18:52:49.801Z,98699.35
2022-09-28T18:55:20.575Z,98696.06
2022-09-28T18:57:51.471Z,98697.81
2022-09-28T19:00:22.273Z,98699.83
2022-09-28T19:02:53.417Z,98700.76
2022-09-28T19:05:24.164Z,98703.11
2022-09-28T19:07:55.104Z,98706.44
2022-09-28T19:10:25.835Z,98707.37
2022-09-28T19:12:56.491Z,98706.30
2022-09-28T19:15:27.091Z,98704.84
2022-09-28T19:17:58.143Z,98695.83
2022-09-28T19:20:28.831Z,98701.76
2022-09-28T19:22:59.910Z,98694.36
2022-09-28T19:25:30.707Z,98700.46
2022-09-28T19:28:01.517Z,98699.41
2022-09-28T19:30:32.249Z,98700.00
2022-09-28T19:33:02.963Z,98701.42
2022-09-28T19:35:33.757Z,98701.42
2022-09-28T19:38:04.381Z,98699.38
2022-09-28T19:40:37.534Z,98701.38
2022-09-28T19:43:08.336Z,98701.70
2022-09-28T19:45:39.807Z,98700.91
2022-09-28T19:48:10.538Z,98701.00
2022-09-28T19:50:41.808Z,98701.16
2022-09-28T19:53:12.562Z,98705.41
2022-09-28T19:55:43.279Z,98710.02
2022-09-28T19:58:16.428Z,98711.39
2022-09-28T20:00:47.217Z,98698.56
2022-09-28T20:03:18.531Z,98710.45
2022-09-28T20:05:49.398Z,98710.88
2022-09-28T20:08:21.880Z,98715.91
2022-09-28T20:10:54.546Z,98717.45
2022-09-28T20:13:24.751Z,98715.84
2022-09-28T20:15:56.451Z,98724.13
2022-09-28T20:18:27.506Z,98728.78
2022-09-28T20:21:05.257Z,98728.41
2022-09-28T20:23:36.752Z,98733.02
2022-09-28T20:26:09.156Z,98736.11
2022-09-28T20:28:40.775Z,98740.84
2022-09-28T20:31:14.382Z,98742.42
2022-09-28T20:33:45.595Z,98747.09
2022-09-28T20:36:17.624Z,98751.31
2022-09-28T20:38:50.057Z,98752.14
2022-09-28T20:41:22.994Z,98760.09
2022-09-28T20:43:57.619Z,98755.02
2022-09-28T20:46:30.355Z,98756.90
2022-09-28T20:49:01.357Z,98762.74
2022-09-28T20:51:32.540Z,98765.95
2022-09-28T20:54:03.180Z,98774.55
2022-09-28T20:56:37.840Z,98774.13
2022-09-28T20:59:11.268Z,98778.05
2022-09-28T21:01:43.129Z,98779.40
2022-09-28T21:04:14.082Z,98783.13
2022-09-28T21:06:45.216Z,98788.44
2022-09-28T21:09:16.024Z,98790.09
2022-09-28T21:11:48.150Z,98795.48
2022-09-28T21:14:18.889Z,98794.73
2022-09-28T21:16:49.725Z,98799.29
2022-09-28T21:19:20.592Z,98798.46
2022-09-28T21:21:51.229Z,98801.67
2022-09-28T21:24:21.790Z,98796.61
2022-09-28T21:26:52.420Z,98801.63
2022-09-28T21:29:23.060Z,98802.95
2022-09-28T21:31:53.742Z,98799.41
2022-09-28T21:34:25.205Z,98811.89
2022-09-28T21:36:55.894Z,98815.85
2022-09-28T21:39:26.557Z,98813.50
2022-09-28T21:41:57.137Z,98818.63
2022-09-28T21:44:27.957Z,98822.07
2022-09-28T21:46:58.756Z,98826.16
2022-09-28T21:49:29.442Z,98822.95
2022-09-28T21:52:00.086Z,98815.95
2022-09-28T21:54:30.839Z,98818.73
2022-09-28T21:57:02.011Z,98819.32
2022-09-28T21:59:32.701Z,98823.77
2022-09-28T22:02:04.854Z,98823.40
2022-09-28T22:04:35.737Z,98826.93
2022-09-28T22:07:06.436Z,98827.39
2022-09-28T22:09:37.054Z,98833.16
2022-09-28T22:12:08.293Z,98834.34
2022-09-28T22:14:39.281Z,98828.86
2022-09-28T22:17:09.897Z,98828.70
2022-09-28T22:19:41.727Z,98826.84
2022-09-28T22:22:12.340Z,98829.81
2022-09-28T22:24:43.040Z,98828.22
2022-09-28T22:27:15.470Z,98834.05
2022-09-28T22:29:46.132Z,98832.70
2022-09-28T22:32:16.799Z,98829.21
2022-09-28T22:34:47.470Z,98831.84
2022-09-28T22:37:19.222Z,98832.19
2022-09-28T22:39:49.807Z,98833.63
2022-09-28T22:42:20.703Z,98829.00
2022-09-28T22:44:51.273Z,98831.33
2022-09-28T22:47:21.912Z,98833.88
2022-09-28T22:49:52.659Z,98835.05
2022-09-28T22:52:23.449Z,98832.56
2022-09-28T22:54:54.132Z,98835.58
2022-09-28T22:57:24.745Z,98838.79
2022-09-28T22:59:55.357Z,98839.13
2022-09-28T23:02:26.078Z,98845.92
2022-09-28T23:04:56.867Z,98852.41
2022-09-28T23:07:27.566Z,98848.95
2022-09-28T23:10:00.580Z,98850.11
2022-09-28T23:12:33.333Z,98848.89
2022-09-28T23:15:02.350Z,98852.20
2022-09-28T23:17:32.926Z,98856.36
2022-09-28T23:20:04.414Z,98859.06
2022-09-28T23:22:35.247Z,98855.80
2022-09-28T23:25:06.653Z,98855.70
2022-09-28T23:27:37.432Z,98856.91
2022-09-28T23:30:10.397Z,98859.89
2022-09-28T23:32:41.236Z,98863.28
2022-09-28T23:35:13.024Z,98860.59
2022-09-28T23:37:43.796Z,98863.86
2022-09-28T23:40:14.592Z,98862.04
2022-09-28T23:42:45.176Z,98864.63
2022-09-28T23:45:16.212Z,98863.44
2022-09-28T23:47:46.956Z,98865.30
2022-09-28T23:50:18.258Z,98866.98
2022-09-28T23:52:50.275Z,98866.24
2022-09-28T23:55:20.976Z,98867.36
2022-09-28T23:57:55.470Z,98869.33
